Kinuso, Canada
Current Conditions -  °F | °C
As of 5:00 PM on Sunday 25 Jan 2015 (Local Time) from CYZH Reporting Station
Broken Clouds Broken Clouds  
Wind Chill: 39°   Ceiling: 15000
Heat Index: 46°   Visibility: 9mi
Dew Point: 30°   Wind: 22mph
Humidity: 53%   Direction: 280°W
Pressure: 29.74"   Gusts: 31mph
Location:  55.33°N, 115.43°W
Report Text: CYZH 260000Z AUTO 28019G27KT 9SM BKN150 08/M01 A2974 RMK SLP092
Loading
Personal Weather Stations






























Interactive Weather Map New forecast layout! Learn more

10-Day Weather Forecast

Advertisements
Track Severe Weather on mobile